Página principal
METAR-TAF:

METAR-TAF

Aeroportos :

Córdova, Argentina

Aeroporto Internacional Ingeniero Ambrosio L.V. Taravella

latitude: 31-19S, longitude: 064-13W, altura: 484 m

Observação actual do tempo

O boletim foi feito há 27 minutos, às 23:00 UTC
Vento 13 kt de nordeste
Temperatura 28°C
Humidade 30%
Pressão 1007 hPa
Visibilidade 10 km ou mais
sem nuvens abaixo de 1500 metros e sem cumulonimbus

METAR: SACO 122300Z 05013KT CAVOK 28/09 Q1007

Hora: 20:27 (23:27 UTC)

Previsão

O boletim foi feito há 6 horas e 27 minutos, às 17:00 UTC
Previsão válida de 12 às 18 UTC a 13 às 18 UTC
Vento 20 kt de nor-nordeste
Visibilidade 10 km ou mais
Nuvens dispersasa uma altura de 3500 ft
Tornando-se
de 12 às 23 UTC a 13 às 01 UTC
Vento 5 kt de nor-noroeste
Visibilidade 10 km ou mais
sem nuvens abaixo de 1500 metros e sem cumulonimbus

TAF: SACO 121700Z 1218/1318 02020KT 9999 SCT035 TX36/1318Z TN17/1310Z BECMG 1223/1301 34005KT CAVOK

Observações e previsões do tempo de mais de 4000 aeroportos (mensagens METAR e TAF).

As estações disponíveis são os pontos amarelos e vermelhos sobre o mapa.

Mova o rato sobre o mapa para ver o nome da estação.

Depois clique no ponto para visualizar as observações e previsões meteorológicas.

Para alterar o mapa : clique nos botões verdes com uma cruz preta para aumentar o zoom; no botão verde com uma pitada de zoom; ou nas setas verdes para mapas adjacentes.


METAR-TAF: